createdAt,value
2019-03-03T00:01:26.086Z,100368.53
2019-03-03T00:03:54.897Z,100366.45
2019-03-03T00:06:23.936Z,100369.69
2019-03-03T00:08:52.978Z,100372.23
2019-03-03T00:11:22.002Z,100362.75
2019-03-03T00:13:51.064Z,100363.31
2019-03-03T00:16:19.876Z,100372.56
2019-03-03T00:18:48.890Z,100370.52
2019-03-03T00:21:17.928Z,100374.02
2019-03-03T00:23:46.874Z,100374.16
2019-03-03T00:26:15.804Z,100377.27
2019-03-03T00:28:44.643Z,100374.99
2019-03-03T00:31:16.745Z,100373.66
2019-03-03T00:33:45.748Z,100372.31
2019-03-03T00:36:14.805Z,100372.89
2019-03-03T00:39:02.485Z,100370.58
2019-03-03T00:42:05.731Z,100374.23
2019-03-03T00:44:46.031Z,100285.41
2019-03-03T00:47:39.873Z,100372.13
2019-03-03T00:50:17.496Z,100371.41
2019-03-03T00:53:08.262Z,100373.78
2019-03-03T00:56:05.643Z,100370.27
2019-03-03T00:58:45.478Z,100361.53
2019-03-03T01:01:31.365Z,100359.99
2019-03-03T01:04:12.105Z,100342.55
2019-03-03T01:07:02.716Z,100350.38
2019-03-03T01:09:55.792Z,100340.29
2019-03-03T01:12:46.268Z,100338.94
2019-03-03T01:15:44.753Z,100337.92
2019-03-03T01:18:47.333Z,100335.23
2019-03-03T01:21:28.101Z,100275.02
2019-03-03T01:24:15.089Z,100336.98
2019-03-03T01:26:44.177Z,100331.63
2019-03-03T01:29:13.185Z,100338.58
2019-03-03T01:31:42.216Z,100332.35
2019-03-03T01:34:11.048Z,100332.35
2019-03-03T01:36:40.098Z,100339.75
2019-03-03T01:39:09.502Z,100324.52
2019-03-03T01:41:38.469Z,100336.42
2019-03-03T01:44:07.494Z,100319.03
2019-03-03T01:46:36.383Z,100331.87
2019-03-03T01:49:05.460Z,100326.88
2019-03-03T01:51:34.466Z,100322.50
2019-03-03T01:54:03.382Z,100324.78
2019-03-03T01:56:32.180Z,100319.69
2019-03-03T01:59:01.001Z,100318.03
2019-03-03T02:01:29.916Z,100310.38
2019-03-03T02:03:58.740Z,100301.47
2019-03-03T02:06:27.736Z,100315.16
2019-03-03T02:08:56.654Z,100298.73
2019-03-03T02:11:26.697Z,100303.69
2019-03-03T02:13:55.795Z,100291.95
2019-03-03T02:16:24.775Z,100283.87
2019-03-03T02:18:53.671Z,100291.55
2019-03-03T02:21:22.507Z,100282.18
2019-03-03T02:23:51.412Z,100282.78
2019-03-03T02:26:20.501Z,100280.87
2019-03-03T02:28:49.425Z,100273.88
2019-03-03T02:31:18.339Z,100273.53
2019-03-03T02:33:47.316Z,100269.21
2019-03-03T02:36:16.335Z,100270.55
2019-03-03T02:38:45.135Z,100275.08
2019-03-03T02:41:14.204Z,100275.53
2019-03-03T02:43:43.202Z,100283.16
2019-03-03T02:46:12.171Z,100287.48
2019-03-03T02:48:41.028Z,100297.66
2019-03-03T02:51:09.907Z,100293.95
2019-03-03T02:53:38.830Z,100278.45
2019-03-03T02:56:07.706Z,100272.39
2019-03-03T02:58:36.528Z,100259.25
2019-03-03T03:01:17.351Z,100258.40
2019-03-03T03:03:46.257Z,100260.19
2019-03-03T03:06:43.447Z,100250.95
2019-03-03T03:09:18.433Z,100252.12
2019-03-03T03:12:09.331Z,100253.39
2019-03-03T03:14:46.331Z,100249.34
2019-03-03T03:17:37.249Z,100251.53
2019-03-03T03:20:17.506Z,100249.03
2019-03-03T03:22:54.887Z,100240.20
2019-03-03T03:25:33.014Z,100238.45
2019-03-03T03:28:26.954Z,100237.77
2019-03-03T03:31:02.806Z,100239.48
2019-03-03T03:33:44.125Z,100238.80
2019-03-03T03:36:24.962Z,100240.71
2019-03-03T03:39:00.328Z,100235.12
2019-03-03T03:41:43.569Z,100234.57
2019-03-03T03:44:22.574Z,100230.28
2019-03-03T03:47:13.076Z,100239.97
2019-03-03T03:50:01.009Z,100240.17
2019-03-03T03:53:04.135Z,100229.22
2019-03-03T03:55:57.738Z,100235.27
2019-03-03T03:58:45.764Z,100235.19
2019-03-03T04:01:51.831Z,100236.77
2019-03-03T04:04:25.931Z,100231.93
2019-03-03T04:07:03.495Z,100237.19
2019-03-03T04:10:03.823Z,100228.47
2019-03-03T04:13:00.892Z,100237.73
2019-03-03T04:15:47.578Z,100212.74
2019-03-03T04:18:41.521Z,100224.03
2019-03-03T04:21:17.518Z,100217.55
2019-03-03T04:24:04.569Z,100225.78
2019-03-03T04:26:44.772Z,100223.42
2019-03-03T04:29:48.001Z,100214.35
2019-03-03T04:32:51.315Z,100215.08
2019-03-03T04:35:36.726Z,100204.57
2019-03-03T04:38:27.688Z,100201.72
2019-03-03T04:41:18.860Z,100200.48
2019-03-03T04:43:57.083Z,100203.26
2019-03-03T04:46:37.838Z,100190.52
2019-03-03T04:49:18.422Z,100187.42
2019-03-03T04:52:06.113Z,100184.33
2019-03-03T04:54:50.914Z,100176.61
2019-03-03T04:57:38.898Z,100172.89
2019-03-03T05:00:21.204Z,100175.95
2019-03-03T05:03:10.938Z,100167.02
2019-03-03T05:05:46.869Z,100168.57
2019-03-03T05:08:20.487Z,100170.94
2019-03-03T05:10:59.065Z,100168.36
2019-03-03T05:13:32.516Z,100161.59
2019-03-03T05:16:26.359Z,100154.45
2019-03-03T05:19:08.114Z,100154.14
2019-03-03T05:21:37.098Z,100151.89
2019-03-03T05:24:06.075Z,100153.03
2019-03-03T05:26:34.942Z,100154.06
2019-03-03T05:29:03.976Z,100153.66
2019-03-03T05:31:32.956Z,100147.98
2019-03-03T05:34:01.957Z,100143.66
2019-03-03T05:36:30.858Z,100144.48
2019-03-03T05:38:59.777Z,100147.98
2019-03-03T05:41:28.681Z,100141.59
2019-03-03T05:43:57.623Z,100150.25
2019-03-03T05:48:55.241Z,100133.33
2019-03-03T05:51:24.207Z,100140.98
2019-03-03T05:53:53.101Z,100129.63
2019-03-03T05:56:22.361Z,100134.46
2019-03-03T05:58:52.420Z,100130.88
2019-03-03T06:01:21.274Z,100132.75
2019-03-03T06:03:50.283Z,100125.63
2019-03-03T06:06:19.284Z,100117.50
2019-03-03T06:08:48.170Z,100117.92
2019-03-03T06:11:17.153Z,100120.39
2019-03-03T06:13:46.054Z,100120.39
2019-03-03T06:16:14.936Z,100116.58
2019-03-03T06:18:43.925Z,100116.58
2019-03-03T06:21:12.782Z,100121.09
2019-03-03T06:23:41.740Z,100117.28
2019-03-03T06:26:10.704Z,100121.81
2019-03-03T06:28:39.611Z,100115.56
2019-03-03T06:31:08.500Z,100128.01
2019-03-03T06:33:37.401Z,100127.28
2019-03-03T06:36:06.352Z,100130.04
2019-03-03T06:38:35.270Z,100137.25
2019-03-03T06:41:04.169Z,100138.98
2019-03-03T06:43:33.215Z,100136.22
2019-03-03T06:46:02.218Z,100134.44
2019-03-03T06:48:31.110Z,100133.73
2019-03-03T06:50:59.996Z,100138.16
2019-03-03T06:53:29.013Z,100137.84
2019-03-03T06:55:58.008Z,100135.30
2019-03-03T06:58:27.570Z,100140.52
2019-03-03T07:00:56.613Z,100134.98
2019-03-03T07:03:25.652Z,100137.05
2019-03-03T07:05:54.573Z,100141.06
2019-03-03T07:08:23.394Z,100147.76
2019-03-03T07:10:52.283Z,100144.67
2019-03-03T07:13:21.314Z,100148.30
2019-03-03T07:15:50.359Z,100148.30
2019-03-03T07:18:19.281Z,100150.66
2019-03-03T07:20:48.184Z,100144.05
2019-03-03T07:23:17.036Z,100149.02
2019-03-03T07:25:46.052Z,100150.36
2019-03-03T07:28:17.218Z,100148.81
2019-03-03T07:30:45.720Z,100144.89
2019-03-03T07:33:16.709Z,100146.45
2019-03-03T07:35:45.657Z,100144.39
2019-03-03T07:38:14.567Z,100142.97
2019-03-03T07:40:43.537Z,100144.41
2019-03-03T07:43:12.431Z,100150.28
2019-03-03T07:45:41.443Z,100145.05
2019-03-03T07:48:10.410Z,100142.16
2019-03-03T07:50:39.395Z,100155.34
2019-03-03T07:53:09.033Z,100148.86
2019-03-03T07:55:37.934Z,100147.31
2019-03-03T07:58:06.858Z,100151.77
2019-03-03T08:00:35.884Z,100163.83
2019-03-03T08:03:04.825Z,100155.78
2019-03-03T08:05:33.804Z,100157.31
2019-03-03T08:08:02.684Z,100156.28
2019-03-03T08:10:31.635Z,100157.54
2019-03-03T08:13:08.885Z,100152.61
2019-03-03T08:15:31.195Z,100160.23
2019-03-03T08:18:00.103Z,100159.50
2019-03-03T08:20:29.003Z,100165.59
2019-03-03T08:22:57.892Z,100163.22
2019-03-03T08:25:26.795Z,100159.50
2019-03-03T08:27:55.661Z,100138.70
2019-03-03T08:30:24.693Z,100144.98
2019-03-03T08:32:53.612Z,100137.55
2019-03-03T08:35:22.543Z,100149.22
2019-03-03T08:37:51.430Z,100159.00
2019-03-03T08:40:20.546Z,100162.02
2019-03-03T08:43:14.704Z,100160.55
2019-03-03T08:46:01.630Z,100160.86
2019-03-03T08:48:40.789Z,100160.25
2019-03-03T08:51:15.664Z,100151.59
2019-03-03T08:54:03.478Z,100148.09
2019-03-03T08:56:52.727Z,100153.03
2019-03-03T08:59:30.295Z,100146.63
2019-03-03T09:02:36.638Z,100141.69
2019-03-03T09:05:28.184Z,100145.39
2019-03-03T09:08:12.034Z,100134.24
2019-03-03T09:11:02.148Z,100134.00
2019-03-03T09:13:40.062Z,100135.54
2019-03-03T09:16:30.836Z,100130.45
2019-03-03T09:19:21.011Z,100129.87
2019-03-03T09:22:08.937Z,100133.59
2019-03-03T09:25:02.638Z,100135.02
2019-03-03T09:27:41.583Z,100141.95
2019-03-03T09:30:37.856Z,100130.17
2019-03-03T09:33:18.256Z,100137.27
2019-03-03T09:35:59.040Z,100120.23
2019-03-03T09:38:34.266Z,100126.77
2019-03-03T09:41:10.351Z,100116.70
2019-03-03T09:43:54.179Z,100133.13
2019-03-03T09:46:29.736Z,100120.98
2019-03-03T09:49:20.365Z,100119.94
2019-03-03T09:52:12.670Z,100115.06
2019-03-03T09:54:59.189Z,100118.28
2019-03-03T09:57:44.557Z,100114.48
2019-03-03T10:00:31.874Z,100103.95
2019-03-03T10:03:09.569Z,100117.43
2019-03-03T10:05:56.056Z,100120.38
2019-03-03T10:08:40.296Z,100117.58
2019-03-03T10:11:34.427Z,100127.88
2019-03-03T10:14:28.519Z,100106.98
2019-03-03T10:17:15.063Z,100120.48
2019-03-03T10:20:06.892Z,100117.54
2019-03-03T10:22:42.387Z,100122.61
2019-03-03T10:25:24.353Z,100119.44
2019-03-03T10:28:08.727Z,100123.03
2019-03-03T10:30:56.696Z,100111.91
2019-03-03T10:33:44.399Z,100121.50
2019-03-03T10:36:31.742Z,100116.69
2019-03-03T10:39:31.992Z,100133.92
2019-03-03T10:42:32.247Z,100124.56
2019-03-03T10:45:19.190Z,100129.97
2019-03-03T10:48:07.162Z,100137.33
2019-03-03T10:50:46.831Z,100123.44
2019-03-03T10:53:37.478Z,100120.86
2019-03-03T10:56:33.447Z,100116.69
2019-03-03T10:59:30.601Z,100119.78
2019-03-03T11:02:17.548Z,100111.45
2019-03-03T11:05:20.908Z,100106.08
2019-03-03T11:07:59.045Z,100120.72
2019-03-03T11:10:37.759Z,100112.36
2019-03-03T11:13:16.905Z,100110.41
2019-03-03T11:16:04.862Z,100115.75
2019-03-03T11:18:55.907Z,100108.51
2019-03-03T11:21:36.583Z,100105.70
2019-03-03T11:24:27.533Z,100104.73
2019-03-03T11:27:14.805Z,100098.55
2019-03-03T11:29:56.452Z,100097.13
2019-03-03T11:32:37.849Z,100103.32
2019-03-03T11:35:26.032Z,100107.83
2019-03-03T11:38:17.105Z,100094.77
2019-03-03T11:41:03.460Z,100092.13
2019-03-03T11:43:52.477Z,100100.33
2019-03-03T11:50:05.497Z,100089.80
2019-03-03T11:52:59.929Z,100079.69
2019-03-03T11:55:33.951Z,100073.79
2019-03-03T11:58:25.367Z,100074.39
2019-03-03T12:01:12.217Z,100068.72
2019-03-03T12:03:58.994Z,100066.84
2019-03-03T12:06:34.098Z,100057.91
2019-03-03T12:09:21.845Z,100055.38
2019-03-03T12:12:06.171Z,100051.88
2019-03-03T12:14:58.555Z,100045.05
2019-03-03T12:17:55.613Z,100046.39
2019-03-03T12:20:42.560Z,100048.08
2019-03-03T12:23:42.546Z,100036.31
2019-03-03T12:26:19.980Z,100042.58
2019-03-03T12:29:00.154Z,100033.35
2019-03-03T12:32:06.745Z,100024.47
2019-03-03T12:34:57.616Z,100028.69
2019-03-03T12:37:34.410Z,100034.42
2019-03-03T12:40:22.388Z,100032.30
2019-03-03T12:43:16.145Z,100025.06
2019-03-03T12:45:55.939Z,100020.73
2019-03-03T12:48:51.608Z,100015.83
2019-03-03T12:51:30.006Z,100014.55
2019-03-03T12:54:15.008Z,99995.52
2019-03-03T12:56:55.945Z,99995.91
2019-03-03T12:59:42.146Z,99994.73
2019-03-03T13:02:36.450Z,99995.75
2019-03-03T13:05:19.058Z,99988.96
2019-03-03T13:08:05.930Z,99984.94
2019-03-03T13:10:43.778Z,99957.98
2019-03-03T13:13:31.909Z,99957.98
2019-03-03T13:16:26.104Z,99956.96
2019-03-03T13:19:08.059Z,99950.89
2019-03-03T13:22:04.829Z,99952.33
2019-03-03T13:24:59.559Z,99946.34
2019-03-03T13:27:56.652Z,99953.42
2019-03-03T13:30:34.200Z,99950.23
2019-03-03T13:33:13.894Z,99950.83
2019-03-03T13:36:00.686Z,99945.45
2019-03-03T13:38:37.102Z,99945.35
2019-03-03T13:41:31.473Z,99946.04
2019-03-03T13:44:00.411Z,99926.47
2019-03-03T13:46:29.435Z,99932.59
2019-03-03T13:48:58.324Z,99924.37
2019-03-03T13:51:27.525Z,99927.75
2019-03-03T13:53:56.516Z,99934.47
2019-03-03T13:56:25.612Z,99928.17
2019-03-03T13:58:54.675Z,99926.40
2019-03-03T14:01:23.800Z,99923.91
2019-03-03T14:03:52.783Z,99917.19
2019-03-03T14:06:21.857Z,99913.78
2019-03-03T14:08:52.734Z,99916.17
2019-03-03T14:11:31.025Z,99906.73
2019-03-03T14:13:59.897Z,99903.68
2019-03-03T14:16:28.908Z,99891.35
2019-03-03T14:18:57.930Z,99891.95
2019-03-03T14:21:26.806Z,99869.26
2019-03-03T14:23:55.800Z,99874.88
2019-03-03T14:26:24.850Z,99870.45
2019-03-03T14:28:55.308Z,99881.42
2019-03-03T14:31:24.322Z,99866.70
2019-03-03T14:33:53.366Z,99876.41
2019-03-03T14:36:22.437Z,99872.84
2019-03-03T14:38:51.409Z,99854.45
2019-03-03T14:41:20.389Z,99863.86
2019-03-03T14:43:49.350Z,99850.30
2019-03-03T14:46:18.259Z,99858.66
2019-03-03T14:48:48.053Z,99858.97
2019-03-03T14:51:16.993Z,99861.05
2019-03-03T14:53:45.960Z,99845.72
2019-03-03T14:56:14.966Z,99843.40
2019-03-03T14:58:43.885Z,99856.86
2019-03-03T15:01:13.087Z,99850.64
2019-03-03T15:03:41.973Z,99839.53
2019-03-03T15:06:10.858Z,99849.77
2019-03-03T15:08:39.673Z,99841.37
2019-03-03T15:11:08.608Z,99844.23
2019-03-03T15:13:37.557Z,99834.30
2019-03-03T15:16:06.619Z,99831.97
2019-03-03T15:18:35.627Z,99831.91
2019-03-03T15:21:04.589Z,99807.29
2019-03-03T15:23:33.517Z,99822.20
2019-03-03T15:26:02.479Z,99824.50
2019-03-03T15:28:31.366Z,99829.45
2019-03-03T15:31:00.568Z,99824.21
2019-03-03T15:33:29.810Z,99828.98
2019-03-03T15:35:58.813Z,99826.23
2019-03-03T15:38:28.275Z,99813.84
2019-03-03T15:40:57.265Z,99809.06
2019-03-03T15:43:26.215Z,99816.89
2019-03-03T15:45:55.236Z,99807.88
2019-03-03T15:48:24.194Z,99804.27
2019-03-03T15:50:53.237Z,99804.27
2019-03-03T15:53:22.132Z,99805.94
2019-03-03T15:55:51.136Z,99776.51
2019-03-03T15:58:19.993Z,99807.36
2019-03-03T16:00:48.996Z,99797.14
2019-03-03T16:03:17.968Z,99789.82
2019-03-03T16:05:46.882Z,99786.98
2019-03-03T16:08:15.845Z,99766.53
2019-03-03T16:10:44.975Z,99760.69
2019-03-03T16:13:13.953Z,99750.99
2019-03-03T16:15:42.825Z,99735.92
2019-03-03T16:18:11.819Z,99736.20
2019-03-03T16:20:40.748Z,99729.02
2019-03-03T16:23:09.778Z,99731.95
2019-03-03T16:25:38.843Z,99692.17
2019-03-03T16:28:07.832Z,99729.02
2019-03-03T16:30:37.315Z,99729.94
2019-03-03T16:33:06.307Z,99719.95
2019-03-03T16:35:35.269Z,99721.41
2019-03-03T16:38:04.089Z,99721.05
2019-03-03T16:40:39.542Z,99724.47
2019-03-03T16:43:03.862Z,99726.34
2019-03-03T16:45:32.854Z,99727.68
2019-03-03T16:48:01.805Z,99727.39
2019-03-03T16:50:30.831Z,99722.02
2019-03-03T16:52:59.736Z,99725.52
2019-03-03T16:55:28.706Z,99723.88
2019-03-03T16:57:57.753Z,99710.68
2019-03-03T17:00:26.729Z,99713.66
2019-03-03T17:02:55.686Z,99716.05
2019-03-03T17:05:25.121Z,99714.66
2019-03-03T17:07:54.129Z,99710.63
2019-03-03T17:10:23.234Z,99710.09
2019-03-03T17:12:53.391Z,99706.20
2019-03-03T17:15:22.626Z,99699.34
2019-03-03T17:17:51.680Z,99694.27
2019-03-03T17:20:20.616Z,99696.77
2019-03-03T17:22:49.565Z,99696.34
2019-03-03T17:25:20.037Z,99701.63
2019-03-03T17:27:49.055Z,99698.73
2019-03-03T17:30:19.673Z,99696.86
2019-03-03T17:32:48.662Z,99692.02
2019-03-03T17:35:17.762Z,99687.23
2019-03-03T17:37:46.748Z,99684.39
2019-03-03T17:40:17.880Z,99675.74
2019-03-03T17:42:46.935Z,99679.83
2019-03-03T17:45:17.958Z,99675.22
2019-03-03T17:47:47.246Z,99670.08
2019-03-03T17:50:17.111Z,99659.15
2019-03-03T17:52:46.383Z,99662.89
2019-03-03T17:55:16.004Z,99661.84
2019-03-03T17:57:45.069Z,99666.92
2019-03-03T18:00:16.494Z,99653.78
2019-03-03T18:02:45.510Z,99657.52
2019-03-03T18:05:15.295Z,99648.41
2019-03-03T18:07:44.324Z,99637.65
2019-03-03T18:10:13.373Z,99639.14
2019-03-03T18:12:42.453Z,99642.82
2019-03-03T18:15:11.520Z,99633.22
2019-03-03T18:17:40.472Z,99616.97
2019-03-03T18:20:10.631Z,99622.97
2019-03-03T18:22:40.426Z,99613.94
2019-03-03T18:25:10.372Z,99612.54
2019-03-03T18:27:39.315Z,99611.63
2019-03-03T18:30:11.221Z,99595.80
2019-03-03T18:32:40.099Z,99594.98
2019-03-03T18:35:09.289Z,99592.15
2019-03-03T18:37:38.222Z,99601.99
2019-03-03T18:40:08.033Z,99588.03
2019-03-03T18:42:36.899Z,99587.69
2019-03-03T18:45:07.153Z,99589.45
2019-03-03T18:47:36.874Z,99588.11
2019-03-03T18:50:07.763Z,99589.84
2019-03-03T18:52:36.774Z,99587.83
2019-03-03T18:55:07.190Z,99600.36
2019-03-03T18:57:36.163Z,99598.14
2019-03-03T19:00:09.804Z,99596.80
2019-03-03T19:02:38.762Z,99590.66
2019-03-03T19:05:08.039Z,99593.48
2019-03-03T19:07:36.982Z,99587.10
2019-03-03T19:10:07.786Z,99589.17
2019-03-03T19:12:36.759Z,99578.28
2019-03-03T19:15:07.189Z,99584.70
2019-03-03T19:17:36.303Z,99580.20
2019-03-03T19:20:08.748Z,99574.30
2019-03-03T19:22:37.726Z,99566.48
2019-03-03T19:25:08.335Z,99572.09
2019-03-03T19:27:37.340Z,99562.30
2019-03-03T19:30:09.362Z,99564.03
2019-03-03T19:32:38.384Z,99551.56
2019-03-03T19:35:08.565Z,99537.08
2019-03-03T19:37:37.366Z,99534.39
2019-03-03T19:40:07.422Z,99525.59
2019-03-03T19:42:36.397Z,99530.88
2019-03-03T19:45:08.810Z,99528.67
2019-03-03T19:47:37.742Z,99522.20
2019-03-03T19:50:08.306Z,99529.11
2019-03-03T19:52:37.222Z,99524.93
2019-03-03T19:55:07.248Z,99529.30
2019-03-03T19:57:36.314Z,99525.79
2019-03-03T20:00:06.412Z,99519.37
2019-03-03T20:02:35.292Z,99514.47
2019-03-03T20:05:04.313Z,99518.31
2019-03-03T20:07:33.217Z,99523.11
2019-03-03T20:10:02.120Z,99527.37
2019-03-03T20:12:31.112Z,99523.39
2019-03-03T20:15:00.006Z,99521.18
2019-03-03T20:17:29.242Z,99511.88
2019-03-03T20:19:58.165Z,99518.98
2019-03-03T20:22:27.153Z,99511.50
2019-03-03T20:24:55.964Z,99498.45
2019-03-03T20:27:24.767Z,99491.50
2019-03-03T20:29:53.645Z,99480.60
2019-03-03T20:32:22.628Z,99487.60
2019-03-03T20:34:51.662Z,99477.15
2019-03-03T20:37:20.676Z,99481.76
2019-03-03T20:39:49.508Z,99471.88
2019-03-03T20:42:18.419Z,99467.84
2019-03-03T20:44:47.435Z,99475.38
2019-03-03T20:47:16.378Z,99468.75
2019-03-03T20:49:45.178Z,99466.93
2019-03-03T20:52:14.286Z,99467.59
2019-03-03T20:54:43.219Z,99462.50
2019-03-03T20:57:13.615Z,99463.32
2019-03-03T20:59:42.630Z,99459.42
2019-03-03T21:02:11.640Z,99454.00
2019-03-03T21:04:40.656Z,99452.58
2019-03-03T21:07:09.579Z,99440.67
2019-03-03T21:09:38.384Z,99430.78
2019-03-03T21:12:07.269Z,99440.06
2019-03-03T21:14:36.231Z,99432.61
2019-03-03T21:17:05.525Z,99431.55
2019-03-03T21:19:34.696Z,99432.38
2019-03-03T21:22:03.799Z,99425.25
2019-03-03T21:24:32.698Z,99419.47
2019-03-03T21:27:01.749Z,99418.12
2019-03-03T21:29:30.662Z,99420.56
2019-03-03T21:31:59.553Z,99421.86
2019-03-03T21:34:28.490Z,99418.17
2019-03-03T21:37:00.041Z,99410.00
2019-03-03T21:39:28.945Z,99399.44
2019-03-03T21:41:57.970Z,99393.59
2019-03-03T21:44:27.020Z,99399.60
2019-03-03T21:46:56.353Z,99398.13
2019-03-03T21:49:25.474Z,99395.31
2019-03-03T21:51:54.367Z,99388.22
2019-03-03T21:54:23.268Z,99384.11
2019-03-03T21:56:52.170Z,99368.67
2019-03-03T21:59:21.165Z,99344.41
2019-03-03T22:01:50.306Z,99341.24
2019-03-03T22:04:19.316Z,99343.64
2019-03-03T22:06:48.329Z,99352.92
2019-03-03T22:09:17.240Z,99355.45
2019-03-03T22:11:46.330Z,99353.59
2019-03-03T22:14:15.342Z,99354.80
2019-03-03T22:16:44.208Z,99362.09
2019-03-03T22:19:13.099Z,99347.92
2019-03-03T22:21:42.088Z,99342.88
2019-03-03T22:24:11.081Z,99328.28
2019-03-03T22:26:39.997Z,99323.55
2019-03-03T22:29:09.020Z,99315.20
2019-03-03T22:31:37.910Z,99315.33
2019-03-03T22:34:07.081Z,99311.02
2019-03-03T22:36:36.049Z,99314.92
2019-03-03T22:39:07.357Z,99326.00
2019-03-03T22:41:36.132Z,99325.71
2019-03-03T22:44:05.074Z,99312.56
2019-03-03T22:46:34.088Z,99301.01
2019-03-03T22:49:03.007Z,99285.58
2019-03-03T22:51:32.007Z,99281.22
2019-03-03T22:54:00.896Z,99273.04
2019-03-03T22:56:29.712Z,99254.23
2019-03-03T22:58:58.845Z,99252.80
2019-03-03T23:01:38.605Z,99254.71
2019-03-03T23:04:47.638Z,99257.11
2019-03-03T23:07:30.633Z,99256.27
2019-03-03T23:10:34.929Z,99264.89
2019-03-03T23:13:39.633Z,99260.58
2019-03-03T23:16:28.241Z,99255.48
2019-03-03T23:19:31.070Z,99257.11
2019-03-03T23:22:35.718Z,99252.91
2019-03-03T23:25:27.513Z,99240.53
2019-03-03T23:27:56.499Z,99239.48
2019-03-03T23:30:25.470Z,99244.72
2019-03-03T23:32:54.382Z,99231.42
2019-03-03T23:35:23.334Z,99224.99
2019-03-03T23:37:52.413Z,99210.25
2019-03-03T23:40:21.331Z,99207.80
2019-03-03T23:42:50.253Z,99200.70
2019-03-03T23:45:19.561Z,99192.03
2019-03-03T23:47:48.468Z,99158.80
2019-03-03T23:50:17.481Z,99181.59
2019-03-03T23:52:46.310Z,99196.23
2019-03-03T23:55:15.454Z,99192.45
2019-03-03T23:57:44.298Z,99188.52
